Time;durP1;ratioP1;P1;durP2;ratioP2;P2;SDS_P1;SDS_P2;PMS_P1;PMS_P2;Temp;Humidity;BMP_temperature;BMP_pressure;BME280_temperature;BME280_humidity;BME280_pressure;Samples;Min_cycle;Max_cycle;Signal;HPM_P1;HPM_P2
2022/08/10 00:01:37;;;;;;;;;;;18.10;99.90;;;;;;4849325;29;19916;-41
2022/08/10 00:04:03;;;;;;;;;;;18.10;99.90;;;;;;4850111;29;19964;-37
2022/08/10 00:06:28;;;;;;;;;;;18.00;99.90;;;;;;4841738;29;19912;-38
2022/08/10 00:08:54;;;;;;;;;;;18.00;99.90;;;;;;4847085;29;19920;-35
2022/08/10 00:11:19;;;;;;;;;;;18.00;99.90;;;;;;4845106;29;20383;-42
2022/08/10 00:13:45;;;;;;;;;;;18.00;99.90;;;;;;4848471;29;19919;-38
2022/08/10 00:16:10;;;;;;;;;;;18.00;99.90;;;;;;4838880;29;19913;-37
2022/08/10 00:18:36;;;;;;;;;;;18.00;99.90;;;;;;4840461;29;19912;-36
2022/08/10 00:21:05;;;;;;;;;;;17.90;99.90;;;;;;4851214;29;19919;-37
2022/08/10 00:23:31;;;;;;;;;;;17.90;99.90;;;;;;4860220;29;19920;-38
2022/08/10 00:25:57;;;;;;;;;;;17.90;99.90;;;;;;4844436;29;20344;-33
2022/08/10 00:28:22;;;;;;;;;;;17.90;99.90;;;;;;4848870;29;19912;-31
2022/08/10 00:30:48;;;;;;;;;;;17.80;99.90;;;;;;4842900;29;19943;-32
2022/08/10 00:33:13;;;;;;;;;;;17.70;99.90;;;;;;4847400;29;20384;-35
2022/08/10 00:35:39;;;;;;;;;;;17.70;99.90;;;;;;4845172;29;19963;-40
2022/08/10 00:38:04;;;;;;;;;;;17.70;99.90;;;;;;4838862;29;19934;-37
2022/08/10 00:40:30;;;;;;;;;;;17.70;99.90;;;;;;4848395;29;19922;-44
2022/08/10 00:42:55;;;;;;;;;;;17.60;99.90;;;;;;4843863;29;20342;-37
2022/08/10 00:45:21;;;;;;;;;;;17.60;99.90;;;;;;4843653;29;20373;-38
2022/08/10 00:47:46;;;;;;;;;;;17.50;99.90;;;;;;4850552;29;19953;-39
2022/08/10 00:50:12;;;;;;;;;;;17.50;99.90;;;;;;4844912;29;19908;-38
2022/08/10 00:52:37;;;;;;;;;;;17.50;99.90;;;;;;4844158;29;20445;-32
2022/08/10 00:55:03;;;;;;;;;;;17.50;99.90;;;;;;4845446;29;20251;-34
2022/08/10 00:57:29;;;;;;;;;;;17.40;99.90;;;;;;4845128;29;19908;-36
2022/08/10 00:59:55;;;;;;;;;;;17.40;99.90;;;;;;4849619;29;20377;-34
2022/08/10 01:02:20;;;;;;;;;;;17.40;99.90;;;;;;4852750;29;19916;-37
2022/08/10 01:04:46;;;;;;;;;;;17.40;99.90;;;;;;4859572;29;19927;-38
2022/08/10 01:07:26;;;;;;;;;;;17.40;99.90;;;;;;4841891;29;20298;-39
2022/08/10 01:10:04;;;;;;;;;;;17.40;99.90;;;;;;4849541;29;19952;-34
2022/08/10 01:12:49;;;;;;;;;;;17.40;99.90;;;;;;4844160;29;20262;-32
2022/08/10 01:15:23;;;;;;;;;;;17.40;99.90;;;;;;4846483;29;20393;-33
2022/08/10 01:18:06;;;;;;;;;;;17.40;99.90;;;;;;4848335;29;19962;-38
2022/08/10 01:20:32;;;;;;;;;;;17.40;99.90;;;;;;4856014;29;19912;-32
2022/08/10 01:23:16;;;;;;;;;;;17.40;99.90;;;;;;4842048;29;19920;-36
2022/08/10 01:25:44;;;;;;;;;;;17.40;99.90;;;;;;4842238;29;19919;-36
2022/08/10 01:28:13;;;;;;;;;;;17.40;99.90;;;;;;4823423;29;20395;-34
2022/08/10 01:30:39;;;;;;;;;;;17.40;99.90;;;;;;4842263;29;19916;-36
2022/08/10 01:33:17;;;;;;;;;;;17.40;99.90;;;;;;4845718;29;20390;-38
2022/08/10 01:35:46;;;;;;;;;;;17.40;99.90;;;;;;4847748;29;19916;-39
2022/08/10 01:38:21;;;;;;;;;;;17.40;99.90;;;;;;4843351;29;20537;-38
2022/08/10 01:40:52;;;;;;;;;;;17.40;99.90;;;;;;4854226;29;19911;-47
2022/08/10 01:43:18;;;;;;;;;;;17.40;99.90;;;;;;4843991;29;19963;-34
2022/08/10 01:45:44;;;;;;;;;;;17.40;99.90;;;;;;4841934;29;20386;-39
2022/08/10 01:48:27;;;;;;;;;;;17.40;99.90;;;;;;4844383;29;19912;-33
2022/08/10 01:50:55;;;;;;;;;;;17.30;99.90;;;;;;4839929;29;20343;-34
2022/08/10 01:53:21;;;;;;;;;;;17.30;99.90;;;;;;4844468;29;19988;-30
2022/08/10 01:55:49;;;;;;;;;;;17.30;99.90;;;;;;4848502;29;19919;-34
2022/08/10 01:58:16;;;;;;;;;;;17.30;99.90;;;;;;4846270;29;20384;-37
2022/08/10 02:00:44;;;;;;;;;;;17.30;99.90;;;;;;4839052;29;19916;-34
2022/08/10 02:03:11;;;;;;;;;;;17.30;99.90;;;;;;4847491;29;19916;-36
2022/08/10 02:05:37;;;;;;;;;;;17.20;99.90;;;;;;4845706;29;19916;-33
2022/08/10 02:08:04;;;;;;;;;;;17.30;99.90;;;;;;4843970;29;20304;-38
2022/08/10 02:10:31;;;;;;;;;;;17.30;99.90;;;;;;4859959;29;19966;-47
2022/08/10 02:12:57;;;;;;;;;;;17.20;99.90;;;;;;4849530;29;20413;-38
2022/08/10 02:15:24;;;;;;;;;;;17.20;99.90;;;;;;4847695;29;19916;-41
2022/08/10 02:17:54;;;;;;;;;;;17.20;99.90;;;;;;4850254;29;19962;-35
2022/08/10 02:20:22;;;;;;;;;;;17.10;99.90;;;;;;4842265;29;19923;-38
2022/08/10 02:22:50;;;;;;;;;;;17.10;99.90;;;;;;4851448;29;20371;-38
2022/08/10 02:25:18;;;;;;;;;;;17.10;99.90;;;;;;4854900;29;20012;-37
2022/08/10 02:27:44;;;;;;;;;;;17.00;99.90;;;;;;4842122;29;20374;-35
2022/08/10 02:30:11;;;;;;;;;;;17.00;99.90;;;;;;4839757;29;20382;-34
2022/08/10 02:32:37;;;;;;;;;;;17.00;99.90;;;;;;4841272;29;19912;-33
2022/08/10 02:35:04;;;;;;;;;;;17.00;99.90;;;;;;4846863;29;19920;-34
2022/08/10 02:37:30;;;;;;;;;;;16.90;99.90;;;;;;4842171;29;20365;-37
2022/08/10 02:39:55;;;;;;;;;;;16.90;99.90;;;;;;4847217;29;19922;-36
2022/08/10 02:42:23;;;;;;;;;;;17.00;99.90;;;;;;4838774;29;20316;-38
2022/08/10 02:44:52;;;;;;;;;;;17.00;99.90;;;;;;4844919;29;19920;-56
2022/08/10 02:47:38;;;;;;;;;;;17.00;99.90;;;;;;4839514;29;19999;-37
2022/08/10 02:50:03;;;;;;;;;;;17.00;99.90;;;;;;4844079;29;20015;-33
2022/08/10 02:52:33;;;;;;;;;;;17.00;99.90;;;;;;4854482;29;20002;-30
2022/08/10 02:55:02;;;;;;;;;;;17.00;99.90;;;;;;4845003;29;20081;-45
2022/08/10 02:57:32;;;;;;;;;;;17.00;99.90;;;;;;4841445;29;19916;-34
2022/08/10 03:00:00;;;;;;;;;;;17.00;99.90;;;;;;4839488;29;20156;-34
2022/08/10 03:02:37;;;;;;;;;;;17.00;99.90;;;;;;4841946;29;19913;-33
2022/08/10 03:05:05;;;;;;;;;;;17.00;99.90;;;;;;4839677;29;20019;-37
2022/08/10 03:07:36;;;;;;;;;;;17.00;99.90;;;;;;4841709;29;19924;-36
2022/08/10 03:10:04;;;;;;;;;;;17.00;99.90;;;;;;4849840;29;19968;-36
2022/08/10 03:12:30;;;;;;;;;;;16.90;99.90;;;;;;4855068;29;19999;-34
2022/08/10 03:14:56;;;;;;;;;;;16.90;99.90;;;;;;4849110;29;20399;-37
2022/08/10 03:17:22;;;;;;;;;;;16.80;99.90;;;;;;4840352;29;20258;-34
2022/08/10 03:19:48;;;;;;;;;;;16.80;99.90;;;;;;4839041;29;19941;-38
2022/08/10 03:22:14;;;;;;;;;;;16.70;99.90;;;;;;4851247;29;19920;-47
2022/08/10 03:24:41;;;;;;;;;;;16.70;99.90;;;;;;4839851;29;19932;-37
2022/08/10 03:27:07;;;;;;;;;;;16.70;99.90;;;;;;4861397;29;19943;-37
2022/08/10 03:29:32;;;;;;;;;;;16.70;99.90;;;;;;4852465;29;20488;-40
2022/08/10 03:31:59;;;;;;;;;;;16.70;99.90;;;;;;4846373;29;19913;-34
2022/08/10 03:34:25;;;;;;;;;;;16.70;99.90;;;;;;4846849;29;19990;-35
2022/08/10 03:36:51;;;;;;;;;;;16.60;99.90;;;;;;4842129;29;19919;-31
2022/08/10 03:39:17;;;;;;;;;;;16.60;99.90;;;;;;4838795;29;19912;-33
2022/08/10 03:41:47;;;;;;;;;;;16.60;99.90;;;;;;4842283;29;19948;-31
2022/08/10 03:44:14;;;;;;;;;;;16.50;99.90;;;;;;4842261;29;19955;-32
2022/08/10 03:46:40;;;;;;;;;;;16.50;99.90;;;;;;4850639;29;19959;-35
2022/08/10 03:49:06;;;;;;;;;;;16.50;99.90;;;;;;4839396;29;19961;-34
2022/08/10 03:51:33;;;;;;;;;;;16.50;99.90;;;;;;4845666;29;19911;-35
2022/08/10 03:53:59;;;;;;;;;;;16.50;99.90;;;;;;4849054;29;20006;-38
2022/08/10 03:56:25;;;;;;;;;;;16.50;99.90;;;;;;4845359;29;20432;-32
2022/08/10 03:58:50;;;;;;;;;;;16.50;99.90;;;;;;4844941;29;19999;-32
2022/08/10 04:01:17;;;;;;;;;;;16.50;99.90;;;;;;4842544;29;19969;-34
2022/08/10 04:03:43;;;;;;;;;;;16.50;99.90;;;;;;4841647;29;19916;-36
2022/08/10 04:06:09;;;;;;;;;;;16.50;99.90;;;;;;4841131;29;19937;-29
2022/08/10 04:08:38;;;;;;;;;;;16.50;99.90;;;;;;4848771;29;20431;-33
2022/08/10 04:11:03;;;;;;;;;;;16.50;99.90;;;;;;4844359;29;20011;-38
2022/08/10 04:13:29;;;;;;;;;;;16.50;99.90;;;;;;4842606;29;19999;-34
2022/08/10 04:15:54;;;;;;;;;;;16.60;99.90;;;;;;4851441;29;19916;-37
2022/08/10 04:18:20;;;;;;;;;;;16.60;99.90;;;;;;4845826;29;20405;-36
2022/08/10 04:20:49;;;;;;;;;;;16.60;99.90;;;;;;4843734;29;20003;-39
2022/08/10 04:23:18;;;;;;;;;;;16.50;99.90;;;;;;4837965;29;19917;-41
2022/08/10 04:25:44;;;;;;;;;;;16.50;99.90;;;;;;4844508;29;19955;-45
2022/08/10 04:28:10;;;;;;;;;;;16.60;99.90;;;;;;4843391;29;20003;-35
2022/08/10 04:30:36;;;;;;;;;;;16.50;99.90;;;;;;4845823;29;20456;-41
2022/08/10 04:33:03;;;;;;;;;;;16.50;99.90;;;;;;4838067;29;19920;-38
2022/08/10 04:35:29;;;;;;;;;;;16.50;99.90;;;;;;4849746;29;19991;-36
2022/08/10 04:37:55;;;;;;;;;;;16.50;99.90;;;;;;4837401;29;19916;-37
2022/08/10 04:40:21;;;;;;;;;;;16.50;99.90;;;;;;4837455;29;19936;-34
2022/08/10 04:42:47;;;;;;;;;;;16.50;99.90;;;;;;4850390;29;19916;-33
2022/08/10 04:45:13;;;;;;;;;;;16.50;99.90;;;;;;4844968;29;19920;-36
2022/08/10 04:47:39;;;;;;;;;;;16.50;99.90;;;;;;4845994;29;20010;-36
2022/08/10 04:50:05;;;;;;;;;;;16.40;99.90;;;;;;4840553;29;20052;-34
2022/08/10 04:52:30;;;;;;;;;;;16.40;99.90;;;;;;4848004;29;19919;-33
2022/08/10 04:54:56;;;;;;;;;;;16.40;99.90;;;;;;4850544;29;19924;-33
2022/08/10 04:57:21;;;;;;;;;;;16.40;99.90;;;;;;4838810;29;19917;-37
2022/08/10 04:59:47;;;;;;;;;;;16.50;99.90;;;;;;4842445;29;19916;-35
2022/08/10 05:02:13;;;;;;;;;;;16.50;99.90;;;;;;4840994;29;19969;-33
2022/08/10 05:04:39;;;;;;;;;;;16.50;99.90;;;;;;4841065;29;20370;-35
2022/08/10 05:07:08;;;;;;;;;;;16.50;99.90;;;;;;4837377;29;19913;-37
2022/08/10 05:09:34;;;;;;;;;;;16.50;99.90;;;;;;4842536;29;19912;-35
2022/08/10 05:11:59;;;;;;;;;;;16.40;99.90;;;;;;4846433;29;19972;-29
2022/08/10 05:14:24;;;;;;;;;;;16.50;99.90;;;;;;4847467;29;19912;-39
2022/08/10 05:16:50;;;;;;;;;;;16.50;99.90;;;;;;4837798;29;19920;-35
2022/08/10 05:19:15;;;;;;;;;;;16.40;99.90;;;;;;4837920;29;19920;-34
2022/08/10 05:21:41;;;;;;;;;;;16.50;99.90;;;;;;4838189;29;20350;-36
2022/08/10 05:24:07;;;;;;;;;;;16.50;99.90;;;;;;4843863;29;19924;-34
2022/08/10 05:26:32;;;;;;;;;;;16.50;99.90;;;;;;4839001;29;19963;-36
2022/08/10 05:28:57;;;;;;;;;;;16.40;99.90;;;;;;4842719;29;19917;-35
2022/08/10 05:31:23;;;;;;;;;;;16.50;99.90;;;;;;4843422;29;19920;-39
2022/08/10 05:33:49;;;;;;;;;;;16.60;99.90;;;;;;4843245;29;19916;-35
2022/08/10 05:36:14;;;;;;;;;;;16.60;99.90;;;;;;4840753;29;19968;-38
2022/08/10 05:38:41;;;;;;;;;;;16.70;99.90;;;;;;4827345;29;20003;-42
2022/08/10 05:41:06;;;;;;;;;;;16.80;99.90;;;;;;4842495;29;19951;-36
2022/08/10 05:43:32;;;;;;;;;;;16.90;99.90;;;;;;4844675;29;20389;-42
2022/08/10 05:45:58;;;;;;;;;;;16.90;99.90;;;;;;4847075;29;19928;-52
2022/08/10 05:48:23;;;;;;;;;;;17.00;99.90;;;;;;4841278;29;19919;-35
2022/08/10 05:50:49;;;;;;;;;;;17.00;99.90;;;;;;4840352;29;19919;-34
2022/08/10 05:53:14;;;;;;;;;;;17.00;99.90;;;;;;4850191;29;19972;-41
2022/08/10 05:55:40;;;;;;;;;;;17.10;99.90;;;;;;4842546;29;19991;-34
2022/08/10 05:58:05;;;;;;;;;;;17.00;99.90;;;;;;4846774;29;20054;-39
2022/08/10 06:00:33;;;;;;;;;;;17.10;99.90;;;;;;4852990;29;19948;-34
2022/08/10 06:03:00;;;;;;;;;;;17.20;99.90;;;;;;4850052;29;19920;-35
2022/08/10 06:05:27;;;;;;;;;;;17.30;99.90;;;;;;4840841;29;19912;-31
2022/08/10 06:08:08;;;;;;;;;;;17.40;99.90;;;;;;4839347;29;19983;-31
2022/08/10 06:10:35;;;;;;;;;;;17.50;99.90;;;;;;4837039;29;19938;-35
2022/08/10 06:15:47;;;;;;;;;;;17.60;99.90;;;;;;4845347;29;20011;-48
2022/08/10 06:18:15;;;;;;;;;;;17.80;99.90;;;;;;4843456;29;19924;-38
2022/08/10 06:20:42;;;;;;;;;;;17.90;99.90;;;;;;4851441;29;19961;-38
2022/08/10 06:23:08;;;;;;;;;;;17.90;99.90;;;;;;4842734;29;19948;-37
2022/08/10 06:25:34;;;;;;;;;;;18.10;99.90;;;;;;4847323;29;20365;-35
2022/08/10 06:27:59;;;;;;;;;;;18.20;99.90;;;;;;4842954;29;19967;-38
2022/08/10 06:30:26;;;;;;;;;;;18.30;99.90;;;;;;4852807;29;19916;-37
2022/08/10 06:32:54;;;;;;;;;;;18.50;99.90;;;;;;4840910;29;20346;-38
2022/08/10 06:35:20;;;;;;;;;;;18.70;99.90;;;;;;4846088;29;20357;-36
2022/08/10 06:37:46;;;;;;;;;;;18.80;99.90;;;;;;4844298;29;19913;-41
2022/08/10 06:40:12;;;;;;;;;;;18.90;99.90;;;;;;4842615;29;19963;-38
2022/08/10 06:42:39;;;;;;;;;;;19.00;99.90;;;;;;4841340;29;20000;-37
2022/08/10 06:45:07;;;;;;;;;;;19.10;99.90;;;;;;4848605;29;19973;-40
2022/08/10 06:47:39;;;;;;;;;;;19.20;99.90;;;;;;4844105;29;20341;-38
2022/08/10 06:50:09;;;;;;;;;;;19.30;99.90;;;;;;4846147;29;19995;-39
2022/08/10 06:52:35;;;;;;;;;;;19.40;99.90;;;;;;4822218;29;20354;-37
2022/08/10 06:55:01;;;;;;;;;;;19.60;99.90;;;;;;4840899;29;19969;-35
2022/08/10 06:57:29;;;;;;;;;;;19.90;99.90;;;;;;4843990;29;20385;-38
2022/08/10 06:59:55;;;;;;;;;;;20.00;99.90;;;;;;4840363;29;20027;-40
2022/08/10 07:02:25;;;;;;;;;;;20.10;99.90;;;;;;4843784;29;20011;-40
2022/08/10 07:04:55;;;;;;;;;;;20.20;99.90;;;;;;4843041;29;20399;-33
2022/08/10 07:07:26;;;;;;;;;;;20.30;99.90;;;;;;4850192;29;20409;-33
2022/08/10 07:09:52;;;;;;;;;;;20.50;99.90;;;;;;4847953;29;19916;-34
2022/08/10 07:12:20;;;;;;;;;;;20.60;99.90;;;;;;4835795;29;19969;-34
2022/08/10 07:14:46;;;;;;;;;;;20.70;99.90;;;;;;4851315;29;19912;-38
2022/08/10 07:17:13;;;;;;;;;;;20.90;99.90;;;;;;4848746;29;19916;-35
2022/08/10 07:19:40;;;;;;;;;;;21.10;99.90;;;;;;4848592;29;20480;-32
2022/08/10 07:22:06;;;;;;;;;;;21.30;99.90;;;;;;4844778;29;20358;-37
2022/08/10 07:24:33;;;;;;;;;;;21.50;99.90;;;;;;4843513;29;19927;-37
2022/08/10 07:26:59;;;;;;;;;;;21.60;99.90;;;;;;4847579;29;19960;-33
2022/08/10 07:29:28;;;;;;;;;;;21.80;99.90;;;;;;4846904;29;20410;-36
2022/08/10 07:31:55;;;;;;;;;;;21.90;99.90;;;;;;4846387;29;20362;-35
2022/08/10 07:34:21;;;;;;;;;;;22.20;99.90;;;;;;4835491;29;20376;-40
2022/08/10 07:36:48;;;;;;;;;;;22.40;99.90;;;;;;4848037;29;19927;-39
2022/08/10 07:39:14;;;;;;;;;;;22.60;99.90;;;;;;4844323;29;19908;-47
2022/08/10 07:41:41;;;;;;;;;;;22.40;99.90;;;;;;4844780;29;19979;-37
2022/08/10 07:44:08;;;;;;;;;;;22.60;99.90;;;;;;4844277;29;20476;-39
2022/08/10 07:46:37;;;;;;;;;;;22.70;99.90;;;;;;4845612;29;20384;-37
2022/08/10 07:49:04;;;;;;;;;;;22.70;99.90;;;;;;4835739;29;19916;-42
2022/08/10 07:51:30;;;;;;;;;;;22.80;99.90;;;;;;4832755;29;19963;-38
2022/08/10 07:53:58;;;;;;;;;;;23.00;99.90;;;;;;4845535;29;20373;-38
2022/08/10 07:56:25;;;;;;;;;;;23.30;99.90;;;;;;4842237;29;19968;-39
2022/08/10 07:58:58;;;;;;;;;;;23.40;99.90;;;;;;4846562;29;19912;-37
2022/08/10 08:01:27;;;;;;;;;;;23.50;99.90;;;;;;4840880;29;19912;-37
2022/08/10 08:03:53;;;;;;;;;;;23.60;99.90;;;;;;4844304;29;19920;-38
2022/08/10 08:06:18;;;;;;;;;;;23.50;99.90;;;;;;4838655;29;19913;-38
2022/08/10 08:08:45;;;;;;;;;;;23.40;99.90;;;;;;4847967;29;19912;-38
2022/08/10 08:11:12;;;;;;;;;;;23.40;99.90;;;;;;4845395;29;19938;-38
2022/08/10 08:13:38;;;;;;;;;;;23.50;99.90;;;;;;4842425;29;19934;-40
2022/08/10 08:18:50;;;;;;;;;;;23.80;99.90;;;;;;4843861;29;19932;-34
2022/08/10 08:21:17;;;;;;;;;;;24.00;99.90;;;;;;4835629;29;20418;-37
2022/08/10 08:23:43;;;;;;;;;;;24.00;99.90;;;;;;4839391;29;20357;-38
2022/08/10 08:26:09;;;;;;;;;;;24.00;99.90;;;;;;4842581;29;19913;-39
2022/08/10 08:28:35;;;;;;;;;;;24.00;99.90;;;;;;4839554;29;19912;-40
2022/08/10 08:31:01;;;;;;;;;;;24.00;99.90;;;;;;4838612;29;20016;-39
2022/08/10 08:33:27;;;;;;;;;;;24.10;99.90;;;;;;4839867;29;19940;-39
2022/08/10 08:35:53;;;;;;;;;;;24.10;99.90;;;;;;4844719;29;19919;-39
2022/08/10 08:38:20;;;;;;;;;;;24.20;99.90;;;;;;4838614;29;20594;-38
2022/08/10 08:40:49;;;;;;;;;;;24.40;99.90;;;;;;4839783;29;19927;-35
2022/08/10 08:43:22;;;;;;;;;;;24.50;99.90;;;;;;4849521;29;19912;-39
2022/08/10 08:45:47;;;;;;;;;;;24.70;99.90;;;;;;4844970;29;19928;-37
2022/08/10 08:48:23;;;;;;;;;;;25.10;99.90;;;;;;4844935;29;20284;-39
2022/08/10 08:50:50;;;;;;;;;;;25.50;99.90;;;;;;4845502;29;19912;-34
2022/08/10 08:53:15;;;;;;;;;;;25.60;99.90;;;;;;4843678;29;20396;-38
2022/08/10 08:55:47;;;;;;;;;;;25.40;99.90;;;;;;4846554;29;19908;-39
2022/08/10 08:58:27;;;;;;;;;;;25.40;99.90;;;;;;4849382;29;20383;-39
2022/08/10 09:00:59;;;;;;;;;;;25.40;99.90;;;;;;4839477;29;19913;-40
2022/08/10 09:03:43;;;;;;;;;;;25.70;99.90;;;;;;4839309;29;19924;-38
2022/08/10 09:06:08;;;;;;;;;;;25.80;99.90;;;;;;4848942;29;19955;-39
2022/08/10 09:08:48;;;;;;;;;;;26.10;99.90;;;;;;4849087;29;19944;-37
2022/08/10 09:11:14;;;;;;;;;;;26.40;99.90;;;;;;4842383;29;19956;-38
2022/08/10 09:13:58;;;;;;;;;;;26.50;99.60;;;;;;4844548;29;20337;-38
2022/08/10 09:16:42;;;;;;;;;;;26.70;99.10;;;;;;4858767;29;19912;-39
2022/08/10 09:19:20;;;;;;;;;;;27.10;98.50;;;;;;4855438;29;20360;-41
2022/08/10 09:22:06;;;;;;;;;;;27.40;98.30;;;;;;4848663;29;20322;-38
2022/08/10 09:24:50;;;;;;;;;;;27.60;98.00;;;;;;4846057;29;20004;-44
2022/08/10 09:27:36;;;;;;;;;;;27.60;98.00;;;;;;4847906;29;19912;-42
2022/08/10 09:30:06;;;;;;;;;;;27.50;98.20;;;;;;4843309;29;20440;-37
2022/08/10 09:32:37;;;;;;;;;;;28.00;97.80;;;;;;4827268;29;20266;-41
2022/08/10 09:35:11;;;;;;;;;;;28.00;97.30;;;;;;4850975;29;19983;-40
2022/08/10 09:37:41;;;;;;;;;;;28.50;97.00;;;;;;4842692;29;19916;-50
2022/08/10 09:40:16;;;;;;;;;;;29.50;96.30;;;;;;4850593;29;20424;-41
2022/08/10 09:42:47;;;;;;;;;;;30.00;95.30;;;;;;4841373;29;19968;-40
2022/08/10 09:45:15;;;;;;;;;;;29.90;95.00;;;;;;4841533;29;19927;-46
2022/08/10 09:47:59;;;;;;;;;;;30.10;95.00;;;;;;4841063;29;20003;-38
2022/08/10 09:50:44;;;;;;;;;;;30.60;94.90;;;;;;4842465;29;20373;-45
2022/08/10 09:53:09;;;;;;;;;;;31.20;94.20;;;;;;4841416;29;19943;-46
2022/08/10 09:55:38;;;;;;;;;;;31.20;93.60;;;;;;4847202;29;20361;-41
2022/08/10 09:58:22;;;;;;;;;;;30.90;94.00;;;;;;4858522;29;19908;-42
2022/08/10 10:01:01;;;;;;;;;;;31.00;93.60;;;;;;4850734;29;19928;-41
2022/08/10 10:03:32;;;;;;;;;;;30.40;93.40;;;;;;4840686;29;19939;-45
2022/08/10 10:06:15;;;;;;;;;;;29.90;93.80;;;;;;4845714;29;20373;-37
2022/08/10 10:08:53;;;;;;;;;;;29.50;94.10;;;;;;4844842;29;20369;-38
2022/08/10 10:11:34;;;;;;;;;;;29.40;94.20;;;;;;4845948;29;20284;-39
2022/08/10 10:14:23;;;;;;;;;;;29.10;94.50;;;;;;4845108;29;20385;-37
2022/08/10 10:17:00;;;;;;;;;;;29.30;94.40;;;;;;4849705;29;19912;-38
2022/08/10 10:19:34;;;;;;;;;;;29.60;93.70;;;;;;4854314;29;19919;-45
2022/08/10 10:21:59;;;;;;;;;;;29.60;93.50;;;;;;4845663;29;19934;-38
2022/08/10 10:24:43;;;;;;;;;;;29.50;93.30;;;;;;4839961;29;19924;-39
2022/08/10 10:27:11;;;;;;;;;;;29.40;92.70;;;;;;4840543;29;20478;-39
2022/08/10 10:29:37;;;;;;;;;;;29.70;92.80;;;;;;4841481;29;20401;-39
2022/08/10 10:32:14;;;;;;;;;;;29.90;92.60;;;;;;4842234;29;19995;-41
2022/08/10 10:34:46;;;;;;;;;;;30.30;92.70;;;;;;4845467;29;20504;-35
2022/08/10 10:37:12;;;;;;;;;;;30.90;92.00;;;;;;4851004;29;20361;-40
2022/08/10 10:39:39;;;;;;;;;;;31.30;91.40;;;;;;4850530;29;19912;-33
2022/08/10 10:42:04;;;;;;;;;;;31.00;91.30;;;;;;4840058;29;19999;-39
2022/08/10 10:44:33;;;;;;;;;;;30.90;91.10;;;;;;4840367;29;20405;-32
2022/08/10 10:47:10;;;;;;;;;;;30.30;91.00;;;;;;4840335;29;19916;-42
2022/08/10 10:49:41;;;;;;;;;;;30.00;91.70;;;;;;4839503;29;19912;-36
2022/08/10 10:52:16;;;;;;;;;;;30.40;91.10;;;;;;4839396;29;20373;-39
2022/08/10 10:54:56;;;;;;;;;;;30.70;91.20;;;;;;4839716;29;19912;-31
2022/08/10 10:57:25;;;;;;;;;;;30.40;91.30;;;;;;4839641;29;19908;-39
2022/08/10 11:00:08;;;;;;;;;;;30.10;91.50;;;;;;4847097;29;20384;-37
2022/08/10 11:02:35;;;;;;;;;;;30.00;91.90;;;;;;4841009;29;20551;-35
2022/08/10 11:05:16;;;;;;;;;;;30.10;91.70;;;;;;4851325;29;20388;-35
2022/08/10 11:07:42;;;;;;;;;;;30.00;91.70;;;;;;4843489;29;19920;-34
2022/08/10 11:10:10;;;;;;;;;;;29.90;92.30;;;;;;4846826;29;19916;-33
2022/08/10 11:12:42;;;;;;;;;;;29.50;92.10;;;;;;4845735;29;19912;-37
2022/08/10 11:15:13;;;;;;;;;;;29.40;92.70;;;;;;4847904;29;19973;-36
2022/08/10 11:17:44;;;;;;;;;;;29.50;92.20;;;;;;4839251;29;20404;-37
2022/08/10 11:20:31;;;;;;;;;;;29.70;91.90;;;;;;4840028;29;20425;-36
2022/08/10 11:23:17;;;;;;;;;;;29.90;91.80;;;;;;4823011;29;20354;-36
2022/08/10 11:25:45;;;;;;;;;;;30.10;91.70;;;;;;4849888;29;20015;-36
2022/08/10 11:28:10;;;;;;;;;;;30.10;91.70;;;;;;4851362;29;19907;-37
2022/08/10 11:30:43;;;;;;;;;;;30.20;91.70;;;;;;4851899;29;20361;-39
2022/08/10 11:36:04;;;;;;;;;;;30.10;91.80;;;;;;4839360;29;19937;-39
2022/08/10 11:38:33;;;;;;;;;;;30.30;90.90;;;;;;4839462;29;20353;-36
2022/08/10 11:41:14;;;;;;;;;;;30.40;91.00;;;;;;4849644;29;20384;-35
2022/08/10 11:43:45;;;;;;;;;;;30.50;90.60;;;;;;4839264;29;19912;-37
2022/08/10 11:46:13;;;;;;;;;;;30.60;91.00;;;;;;4840110;29;20010;-37
2022/08/10 11:48:42;;;;;;;;;;;30.80;91.00;;;;;;4848044;29;19912;-36
2022/08/10 11:51:17;;;;;;;;;;;31.00;90.40;;;;;;4843063;29;19951;-40
2022/08/10 11:53:43;;;;;;;;;;;30.80;90.90;;;;;;4839291;29;20370;-38
2022/08/10 11:56:11;;;;;;;;;;;30.70;90.70;;;;;;4846104;29;20345;-39
2022/08/10 12:01:26;;;;;;;;;;;30.70;90.70;;;;;;4851457;29;19960;-37
2022/08/10 12:03:52;;;;;;;;;;;30.70;90.90;;;;;;4845333;29;19959;-37
2022/08/10 12:06:19;;;;;;;;;;;31.00;90.90;;;;;;4849302;29;20442;-38
2022/08/10 12:08:46;;;;;;;;;;;31.20;90.50;;;;;;4849393;29;19908;-38
2022/08/10 12:11:14;;;;;;;;;;;31.30;90.60;;;;;;4843053;29;20424;-37
2022/08/10 12:13:43;;;;;;;;;;;31.30;90.60;;;;;;4848938;29;20165;-36
2022/08/10 12:16:11;;;;;;;;;;;31.20;90.50;;;;;;4838831;29;20397;-34
2022/08/10 12:18:55;;;;;;;;;;;31.00;90.30;;;;;;4845218;29;20772;-39
2022/08/10 12:21:24;;;;;;;;;;;30.90;89.80;;;;;;4844921;29;19920;-31
2022/08/10 12:23:54;;;;;;;;;;;31.20;86.70;;;;;;4842048;29;20381;-37
2022/08/10 12:26:24;;;;;;;;;;;31.30;86.90;;;;;;4845838;29;20293;-36
2022/08/10 12:29:12;;;;;;;;;;;31.50;86.00;;;;;;4823601;29;19916;-34
2022/08/10 12:31:56;;;;;;;;;;;31.70;85.40;;;;;;4838714;29;19908;-39
2022/08/10 12:34:28;;;;;;;;;;;31.70;86.70;;;;;;4838074;29;20006;-39
2022/08/10 12:36:59;;;;;;;;;;;31.80;87.00;;;;;;4840871;29;20228;-33
2022/08/10 12:39:26;;;;;;;;;;;31.70;84.60;;;;;;4838679;29;19957;-35
2022/08/10 12:42:04;;;;;;;;;;;31.80;84.50;;;;;;4845955;29;20011;-36
2022/08/10 12:44:32;;;;;;;;;;;32.00;81.70;;;;;;4841478;29;19923;-37
2022/08/10 12:47:05;;;;;;;;;;;32.20;81.50;;;;;;4842758;29;19970;-38
2022/08/10 12:50:06;;;;;;;;;;;32.20;83.60;;;;;;4842194;29;20358;-38
2022/08/10 12:52:35;;;;;;;;;;;32.40;82.50;;;;;;4833650;29;19919;-37
2022/08/10 12:55:03;;;;;;;;;;;32.40;81.50;;;;;;4842344;29;20413;-38
2022/08/10 12:57:33;;;;;;;;;;;32.60;81.30;;;;;;4842141;29;19912;-38
2022/08/10 13:00:00;;;;;;;;;;;32.80;82.40;;;;;;4846075;29;20423;-39
2022/08/10 13:02:44;;;;;;;;;;;32.90;82.40;;;;;;4842295;29;19909;-34
2022/08/10 13:05:10;;;;;;;;;;;32.70;80.80;;;;;;4842150;29;20195;-34
2022/08/10 13:07:41;;;;;;;;;;;32.80;79.30;;;;;;4827274;29;20611;-34
2022/08/10 13:10:08;;;;;;;;;;;32.80;79.20;;;;;;4841111;29;20433;-40
2022/08/10 13:12:38;;;;;;;;;;;32.90;79.50;;;;;;4848882;29;20004;-41
2022/08/10 13:15:05;;;;;;;;;;;33.00;77.50;;;;;;4850265;29;20176;-39
2022/08/10 13:17:32;;;;;;;;;;;33.00;76.90;;;;;;4841422;29;19941;-37
2022/08/10 13:19:59;;;;;;;;;;;32.90;78.50;;;;;;4845027;29;19951;-38
2022/08/10 13:22:26;;;;;;;;;;;33.00;78.00;;;;;;4841295;29;19908;-37
2022/08/10 13:24:52;;;;;;;;;;;33.00;77.50;;;;;;4841138;29;19917;-42
2022/08/10 13:27:23;;;;;;;;;;;32.90;76.60;;;;;;4841352;29;19920;-35
2022/08/10 13:29:53;;;;;;;;;;;32.80;77.60;;;;;;4841457;29;19915;-35
2022/08/10 13:32:20;;;;;;;;;;;32.80;78.30;;;;;;4853781;29;20305;-36
2022/08/10 13:34:48;;;;;;;;;;;32.90;78.20;;;;;;4841286;29;19912;-37
2022/08/10 13:37:15;;;;;;;;;;;32.90;78.00;;;;;;4841991;29;19954;-39
2022/08/10 13:39:43;;;;;;;;;;;32.80;78.40;;;;;;4825099;29;19951;-48
2022/08/10 13:42:11;;;;;;;;;;;32.90;76.70;;;;;;4846237;29;20280;-38
2022/08/10 13:44:40;;;;;;;;;;;33.00;77.60;;;;;;4858382;29;20348;-38
2022/08/10 13:47:07;;;;;;;;;;;32.90;77.80;;;;;;4846296;29;19927;-37
2022/08/10 13:49:42;;;;;;;;;;;32.70;78.80;;;;;;4850238;29;20391;-43
2022/08/10 13:52:11;;;;;;;;;;;32.80;78.10;;;;;;4843131;29;20234;-39
2022/08/10 13:54:38;;;;;;;;;;;33.00;76.40;;;;;;4841820;29;19959;-37
2022/08/10 13:57:04;;;;;;;;;;;33.10;77.60;;;;;;4844812;29;19920;-40
2022/08/10 13:59:31;;;;;;;;;;;33.00;77.60;;;;;;4849298;29;19960;-34
2022/08/10 14:01:57;;;;;;;;;;;32.60;76.80;;;;;;4844479;29;20465;-38
2022/08/10 14:04:23;;;;;;;;;;;32.50;76.50;;;;;;4841068;29;20404;-39
2022/08/10 14:06:52;;;;;;;;;;;32.70;76.90;;;;;;4846518;29;19909;-39
2022/08/10 14:09:22;;;;;;;;;;;32.80;78.60;;;;;;4849478;29;19913;-39
2022/08/10 14:11:48;;;;;;;;;;;32.80;77.70;;;;;;4845646;29;20409;-38
2022/08/10 14:14:15;;;;;;;;;;;32.60;78.90;;;;;;4852728;29;19972;-37
2022/08/10 14:16:41;;;;;;;;;;;32.50;79.70;;;;;;4841812;29;19912;-36
2022/08/10 14:19:10;;;;;;;;;;;32.50;80.50;;;;;;4843921;29;19973;-39
2022/08/10 14:21:36;;;;;;;;;;;32.60;81.10;;;;;;4844784;29;19908;-41
2022/08/10 14:24:02;;;;;;;;;;;32.50;79.30;;;;;;4852986;29;19913;-38
2022/08/10 14:26:28;;;;;;;;;;;32.30;79.20;;;;;;4849285;29;19934;-42
2022/08/10 14:28:56;;;;;;;;;;;32.20;80.70;;;;;;4827879;29;19916;-38
2022/08/10 14:31:24;;;;;;;;;;;32.10;80.30;;;;;;4851268;29;19916;-40
2022/08/10 14:33:54;;;;;;;;;;;32.20;80.10;;;;;;4843748;29;19920;-38
2022/08/10 14:36:27;;;;;;;;;;;32.20;79.40;;;;;;4839902;29;19912;-39
2022/08/10 14:38:54;;;;;;;;;;;32.30;80.00;;;;;;4842506;29;20384;-37